SWR22D LSGG-KJFK
Flight info
| Callsign | SWR22D |
|---|---|
| Flight time | N/A |
| Altitude | 38000 |
| Route | DIPIR T37 IBABA DCT TUTAX DCT OBURO DCT OKRIX DCT AMODO DCT COHPA UM729 RESMI UN491 LGL UN502 JSY DCT LIZAD DCT GAPLI/M080F380 DCT SOMAX/M080F390 NATG ELSIR/N0474F400 N402C ALLEX DCT ENE PARCH4 |
| Aircraft | A333/H-SDE2E3FGHIJ4J5M1P2RWXY/LB1D1 |
Departure
| Time | 2026-05-04 09:49 |
|---|---|
| Airport | Geneva International Airport (LSGG) |
Arrival
| Time | N/A |
|---|---|
| Airport | John F. Kennedy International Airport (KJFK) |
| Time | Latitude | Longitude | Altitude | Speed | Heading |
|---|---|---|---|---|---|
| 2026-05-04 09:37 | 46.23384 | 6.11032 | 1384 ft | 0 kts | 135° |
| 2026-05-04 09:38 | 46.23387 | 6.11027 | 1390 ft | 3 kts | 135° |
| 2026-05-04 09:39 | 46.23400 | 6.11008 | 1384 ft | 3 kts | 135° |
| 2026-05-04 09:39 | 46.23414 | 6.10987 | 1387 ft | 3 kts | 109° |
| 2026-05-04 09:39 | 46.23416 | 6.10959 | 1385 ft | 3 kts | 63° |
| 2026-05-04 09:39 | 46.23412 | 6.10949 | 1385 ft | 0 kts | 49° |
| 2026-05-04 09:41 | 46.23413 | 6.10950 | 1385 ft | 0 kts | 49° |
| 2026-05-04 09:42 | 46.23755 | 6.11156 | 1382 ft | 16 kts | 39° |
| 2026-05-04 09:43 | 46.23846 | 6.11288 | 1379 ft | 20 kts | 46° |
| 2026-05-04 09:43 | 46.23946 | 6.11435 | 1378 ft | 28 kts | 45° |
| 2026-05-04 09:43 | 46.24064 | 6.11609 | 1377 ft | 19 kts | 45° |
| 2026-05-04 09:43 | 46.24164 | 6.11755 | 1375 ft | 22 kts | 46° |
| 2026-05-04 09:44 | 46.24269 | 6.11911 | 1373 ft | 22 kts | 46° |
| 2026-05-04 09:44 | 46.24422 | 6.12134 | 1371 ft | 35 kts | 45° |
| 2026-05-04 09:44 | 46.24559 | 6.12337 | 1371 ft | 21 kts | 46° |
| 2026-05-04 09:46 | 46.24967 | 6.12510 | 1370 ft | 0 kts | 230° |
| 2026-05-04 09:46 | 46.24887 | 6.12372 | 1373 ft | 42 kts | 229° |
| 2026-05-04 09:46 | 46.24574 | 6.11941 | 1375 ft | 82 kts | 217° |
| 2026-05-04 09:47 | 46.24014 | 6.11202 | 1381 ft | 133 kts | 226° |
| 2026-05-04 09:47 | 46.23268 | 6.10106 | 1512 ft | 166 kts | 226° |
| 2026-05-04 09:49 | 46.16075 | 5.99816 | 5096 ft | 247 kts | 224° |
| 2026-05-04 09:49 | 46.14881 | 5.97908 | 5344 ft | 266 kts | 229° |
| 2026-05-04 09:49 | 46.13657 | 5.95790 | 5575 ft | 282 kts | 227° |